Time,TemperatureF,DewpointF,PressureIn,WindDirection,WindDirectionDegrees,WindSpeedMPH,WindSpeedGustMPH,Humidity,HourlyPrecipIn,Conditions,Clouds,dailyrainin,SoftwareType,DateUTC
2013-06-13 06:18:00,-999.0,-99.9,0.00,North,-999,-999.0,-999.0,-999,-99.99,,,0.00,weatherlink.com 1.10,2013-06-13 10:18:00,
2013-06-13 06:31:00,-999.0,-99.9,0.00,North,-999,-999.0,-999.0,-999,-99.99,,,0.00,weatherlink.com 1.10,2013-06-13 10:31:00,
2013-06-13 06:46:00,-999.0,-99.9,0.00,North,-999,-999.0,-999.0,-999,-99.99,,,0.00,weatherlink.com 1.10,2013-06-13 10:46:00,
2013-06-13 07:01:00,-999.0,-99.9,0.00,North,-999,-999.0,-999.0,-999,-99.99,,,0.00,weatherlink.com 1.10,2013-06-13 11:01:00,
2013-06-13 07:16:00,-999.0,-99.9,0.00,North,-999,-999.0,-999.0,-999,-99.99,,,0.00,weatherlink.com 1.10,2013-06-13 11:16:00,
2013-06-13 07:31:00,-999.0,-99.9,0.00,North,-999,-999.0,-999.0,-999,-99.99,,,0.00,weatherlink.com 1.10,2013-06-13 11:31:00,
2013-06-13 07:46:00,-999.0,-99.9,0.00,North,-999,-999.0,-999.0,-999,-99.99,,,0.00,weatherlink.com 1.10,2013-06-13 11:46:00,
2013-06-13 08:01:00,-999.0,-99.9,0.00,North,-999,-999.0,-999.0,-999,-99.99,,,0.00,weatherlink.com 1.10,2013-06-13 12:01:00,
2013-06-13 08:16:00,-999.0,-99.9,0.00,North,-999,-999.0,-999.0,-999,-99.99,,,0.00,weatherlink.com 1.10,2013-06-13 12:16:00,
2013-06-13 08:31:00,-999.0,-99.9,0.00,North,-999,-999.0,-999.0,-999,-99.99,,,0.00,weatherlink.com 1.10,2013-06-13 12:31:00,
2013-06-13 08:46:00,-999.0,-99.9,0.00,North,-999,-999.0,-999.0,-999,-99.99,,,0.00,weatherlink.com 1.10,2013-06-13 12:46:00,
2013-06-13 09:01:00,-999.0,-99.9,0.00,North,-999,-999.0,-999.0,-999,-99.99,,,0.00,weatherlink.com 1.10,2013-06-13 13:01:00,
2013-06-13 09:16:00,-999.0,-99.9,0.00,North,-999,-999.0,-999.0,-999,-99.99,,,0.00,weatherlink.com 1.10,2013-06-13 13:16:00,
2013-06-13 09:31:00,-999.0,-99.9,0.00,North,-999,-999.0,-999.0,-999,-99.99,,,0.00,weatherlink.com 1.10,2013-06-13 13:31:00,
2013-06-13 09:46:00,-999.0,-99.9,0.00,North,-999,-999.0,-999.0,-999,-99.99,,,0.00,weatherlink.com 1.10,2013-06-13 13:46:00,
2013-06-13 10:01:00,-999.0,-99.9,0.00,North,-999,-999.0,-999.0,-999,-99.99,,,0.00,weatherlink.com 1.10,2013-06-13 14:01:00,
2013-06-13 10:15:00,-999.0,-99.9,0.00,North,-999,-999.0,-999.0,-999,-99.99,,,0.00,weatherlink.com 1.10,2013-06-13 14:15:00,
2013-06-13 10:31:00,-999.0,-99.9,0.00,North,-999,-999.0,-999.0,-999,-99.99,,,0.00,weatherlink.com 1.10,2013-06-13 14:31:00,
2013-06-13 10:46:00,-999.0,-99.9,0.00,North,-999,-999.0,-999.0,-999,-99.99,,,0.00,weatherlink.com 1.10,2013-06-13 14:46:00,
2013-06-13 11:01:00,-999.0,-99.9,0.00,North,-999,-999.0,-999.0,-999,-99.99,,,0.00,weatherlink.com 1.10,2013-06-13 15:01:00,
2013-06-13 11:16:00,-999.0,-99.9,0.00,North,-999,-999.0,-999.0,-999,-99.99,,,0.00,weatherlink.com 1.10,2013-06-13 15:16:00,
2013-06-13 11:31:00,-999.0,-99.9,0.00,North,-999,-999.0,-999.0,-999,-99.99,,,0.00,weatherlink.com 1.10,2013-06-13 15:31:00,
2013-06-13 11:46:00,-999.0,-99.9,0.00,North,-999,-999.0,-999.0,-999,-99.99,,,0.00,weatherlink.com 1.10,2013-06-13 15:46:00,
2013-06-13 12:01:00,-999.0,-99.9,0.00,North,-999,-999.0,-999.0,-999,-99.99,,,0.00,weatherlink.com 1.10,2013-06-13 16:01:00,
2013-06-13 12:16:00,-999.0,-99.9,0.00,North,-999,-999.0,-999.0,-999,-99.99,,,0.00,weatherlink.com 1.10,2013-06-13 16:16:00,
2013-06-13 12:31:00,-999.0,-99.9,0.00,North,-999,-999.0,-999.0,-999,-99.99,,,0.00,weatherlink.com 1.10,2013-06-13 16:31:00,
2013-06-13 12:46:00,-999.0,-99.9,0.00,North,-999,-999.0,-999.0,-999,-99.99,,,0.00,weatherlink.com 1.10,2013-06-13 16:46:00,
2013-06-13 13:01:00,-999.0,-99.9,0.00,North,-999,-999.0,-999.0,-999,-99.99,,,0.00,weatherlink.com 1.10,2013-06-13 17:01:00,
2013-06-13 13:16:00,-999.0,-99.9,0.00,North,-999,-999.0,-999.0,-999,-99.99,,,0.00,weatherlink.com 1.10,2013-06-13 17:16:00,
2013-06-13 13:31:00,-999.0,-99.9,0.00,North,-999,-999.0,-999.0,-999,-99.99,,,0.00,weatherlink.com 1.10,2013-06-13 17:31:00,
2013-06-13 13:46:00,-999.0,-99.9,0.00,North,-999,-999.0,-999.0,-999,-99.99,,,0.00,weatherlink.com 1.10,2013-06-13 17:46:00,
2013-06-13 14:01:00,-999.0,-99.9,0.00,North,-999,-999.0,-999.0,-999,-99.99,,,0.00,weatherlink.com 1.10,2013-06-13 18:01:00,
2013-06-13 14:15:00,-999.0,-99.9,0.00,North,-999,-999.0,-999.0,-999,-99.99,,,0.00,weatherlink.com 1.10,2013-06-13 18:15:00,
2013-06-13 14:31:00,-999.0,-99.9,0.00,North,-999,-999.0,-999.0,-999,-99.99,,,0.00,weatherlink.com 1.10,2013-06-13 18:31:00,
2013-06-13 14:46:00,-999.0,-99.9,0.00,North,-999,-999.0,-999.0,-999,-99.99,,,0.00,weatherlink.com 1.10,2013-06-13 18:46:00,
2013-06-13 15:01:00,-999.0,-99.9,0.00,North,-999,-999.0,-999.0,-999,-99.99,,,0.00,weatherlink.com 1.10,2013-06-13 19:01:00,
2013-06-13 15:16:00,-999.0,-99.9,0.00,North,-999,-999.0,-999.0,-999,-99.99,,,0.00,weatherlink.com 1.10,2013-06-13 19:16:00,
2013-06-13 15:31:00,-999.0,-99.9,0.00,North,-999,-999.0,-999.0,-999,-99.99,,,0.00,weatherlink.com 1.10,2013-06-13 19:31:00,
2013-06-13 15:46:00,-999.0,-99.9,0.00,North,-999,-999.0,-999.0,-999,-99.99,,,0.00,weatherlink.com 1.10,2013-06-13 19:46:00,
2013-06-13 16:02:00,-999.0,-99.9,0.00,North,-999,-999.0,-999.0,-999,-99.99,,,0.00,weatherlink.com 1.10,2013-06-13 20:02:00,
2013-06-13 16:17:00,75.3,58.0,29.84,NNW,338,7.0,-999.0,55,-99.99,,,0.00,weatherlink.com 1.10,2013-06-13 20:17:00,
2013-06-13 16:32:00,75.4,57.0,29.84,NW,326,13.0,-999.0,54,-99.99,,,0.00,weatherlink.com 1.10,2013-06-13 20:32:00,
2013-06-13 16:47:00,74.5,57.0,29.85,WNW,288,10.0,-999.0,55,-99.99,,,0.00,weatherlink.com 1.10,2013-06-13 20:47:00,
2013-06-13 17:02:00,74.0,58.0,29.86,NNW,328,12.0,-999.0,58,-99.99,,,0.00,weatherlink.com 1.10,2013-06-13 21:02:00,
2013-06-13 17:17:00,73.4,58.0,29.86,NW,315,12.0,-999.0,58,-99.99,,,0.00,weatherlink.com 1.10,2013-06-13 21:17:00,
2013-06-13 17:32:00,72.2,56.0,29.86,NNW,344,8.0,-999.0,58,-99.99,,,0.00,weatherlink.com 1.10,2013-06-13 21:32:00,
2013-06-13 17:47:00,71.8,56.0,29.87,NW,320,16.0,-999.0,57,-99.99,,,0.00,weatherlink.com 1.10,2013-06-13 21:47:00,
2013-06-13 18:02:00,71.3,57.0,29.87,NW,308,20.0,-999.0,61,-99.99,,,0.00,weatherlink.com 1.10,2013-06-13 22:02:00,
2013-06-13 18:17:00,70.5,55.0,29.87,NNW,344,9.0,-999.0,59,-99.99,,,0.00,weatherlink.com 1.10,2013-06-13 22:17:00,
2013-06-13 18:32:00,70.4,56.0,29.87,WNW,298,10.0,-999.0,60,-99.99,,,0.00,weatherlink.com 1.10,2013-06-13 22:32:00,
2013-06-13 18:47:00,70.3,55.0,29.87,North,350,22.0,-999.0,58,-99.99,,,0.00,weatherlink.com 1.10,2013-06-13 22:47:00,
2013-06-13 19:02:00,69.9,54.0,29.87,NW,324,16.0,-999.0,58,-99.99,,,0.00,weatherlink.com 1.10,2013-06-13 23:02:00,
2013-06-13 19:17:00,69.5,54.0,29.87,NNW,337,11.0,-999.0,59,-99.99,,,0.00,weatherlink.com 1.10,2013-06-13 23:17:00,
2013-06-13 19:32:00,69.3,56.0,29.87,North,4,11.0,-999.0,62,-99.99,,,0.00,weatherlink.com 1.10,2013-06-13 23:32:00,
2013-06-13 19:47:00,69.1,55.0,29.88,NW,324,13.0,-999.0,62,-99.99,,,0.00,weatherlink.com 1.10,2013-06-13 23:47:00,
2013-06-13 20:02:00,68.5,55.0,29.88,NNW,345,11.0,-999.0,63,-99.99,,,0.00,weatherlink.com 1.10,2013-06-14 00:02:00,
2013-06-13 20:17:00,67.6,55.0,29.89,WNW,289,8.0,-999.0,64,-99.99,,,0.00,weatherlink.com 1.10,2013-06-14 00:17:00,
2013-06-13 20:32:00,66.8,54.0,29.89,NNW,329,8.0,-999.0,64,-99.99,,,0.00,weatherlink.com 1.10,2013-06-14 00:32:00,
2013-06-13 20:47:00,66.3,55.0,29.89,NW,324,5.0,-999.0,66,-99.99,,,0.00,weatherlink.com 1.10,2013-06-14 00:47:00,
2013-06-13 21:02:00,65.6,54.0,29.90,NNW,333,6.0,-999.0,67,-99.99,,,0.00,weatherlink.com 1.10,2013-06-14 01:02:00,
2013-06-13 21:32:00,64.5,54.0,29.90,NNW,337,5.0,-999.0,69,-99.99,,,0.00,weatherlink.com 1.10,2013-06-14 01:32:00,
2013-06-13 21:47:00,64.2,54.0,29.90,NW,305,7.0,-999.0,70,-99.99,,,0.00,weatherlink.com 1.10,2013-06-14 01:47:00,
2013-06-13 22:02:00,63.6,55.0,29.90,North,359,1.0,-999.0,73,-99.99,,,0.00,weatherlink.com 1.10,2013-06-14 02:02:00,
2013-06-13 22:17:00,63.2,55.0,29.91,NW,326,2.0,-999.0,74,-99.99,,,0.00,weatherlink.com 1.10,2013-06-14 02:17:00,
2013-06-13 22:32:00,63.1,55.0,29.91,NNW,342,5.0,-999.0,74,-99.99,,,0.00,weatherlink.com 1.10,2013-06-14 02:32:00,
2013-06-13 22:47:00,62.7,55.0,29.91,NNW,337,3.0,-999.0,75,-99.99,,,0.00,weatherlink.com 1.10,2013-06-14 02:47:00,
2013-06-13 23:02:00,62.2,55.0,29.91,NW,319,4.0,-999.0,76,-99.99,,,0.00,weatherlink.com 1.10,2013-06-14 03:02:00,
2013-06-13 23:17:00,61.8,55.0,29.92,NW,307,2.0,-999.0,77,-99.99,,,0.00,weatherlink.com 1.10,2013-06-14 03:17:00,
2013-06-13 23:32:00,61.6,55.0,29.92,WNW,303,7.0,-999.0,78,-99.99,,,0.00,weatherlink.com 1.10,2013-06-14 03:32:00,
2013-06-13 23:47:00,61.3,55.0,29.92,NW,305,8.0,-999.0,79,-99.99,,,0.00,weatherlink.com 1.10,2013-06-14 03:47:00,